sensor_id;sensor_type;location;lat;lon;timestamp;temperature;humidity
420;DHT22;42600;54.408;13.016;2023-02-15T00:01:16;1.30;92.70
420;DHT22;42600;54.408;13.016;2023-02-15T00:03:43;1.30;92.70
420;DHT22;42600;54.408;13.016;2023-02-15T00:06:09;1.30;92.70
420;DHT22;42600;54.408;13.016;2023-02-15T00:08:37;1.30;92.70
420;DHT22;42600;54.408;13.016;2023-02-15T00:11:05;1.20;92.70
420;DHT22;42600;54.408;13.016;2023-02-15T00:13:32;1.20;92.70
420;DHT22;42600;54.408;13.016;2023-02-15T00:16:01;1.20;92.70
420;DHT22;42600;54.408;13.016;2023-02-15T00:18:28;1.20;92.70
420;DHT22;42600;54.408;13.016;2023-02-15T00:20:55;1.20;92.70
420;DHT22;42600;54.408;13.016;2023-02-15T00:23:22;1.20;92.70
420;DHT22;42600;54.408;13.016;2023-02-15T00:25:50;1.20;92.70
420;DHT22;42600;54.408;13.016;2023-02-15T00:28:16;1.20;92.70
420;DHT22;42600;54.408;13.016;2023-02-15T00:30:43;1.20;92.70
420;DHT22;42600;54.408;13.016;2023-02-15T00:33:09;1.20;92.70
420;DHT22;42600;54.408;13.016;2023-02-15T00:35:36;1.20;92.70
420;DHT22;42600;54.408;13.016;2023-02-15T00:38:02;1.20;92.70
420;DHT22;42600;54.408;13.016;2023-02-15T00:40:29;1.20;92.70
420;DHT22;42600;54.408;13.016;2023-02-15T00:42:57;1.20;92.70
420;DHT22;42600;54.408;13.016;2023-02-15T00:45:24;1.10;92.70
420;DHT22;42600;54.408;13.016;2023-02-15T00:47:50;1.10;92.70
420;DHT22;42600;54.408;13.016;2023-02-15T00:50:17;1.10;92.70
420;DHT22;42600;54.408;13.016;2023-02-15T00:52:43;1.10;92.70
420;DHT22;42600;54.408;13.016;2023-02-15T00:55:11;1.10;92.70
420;DHT22;42600;54.408;13.016;2023-02-15T00:57:37;1.10;92.70
420;DHT22;42600;54.408;13.016;2023-02-15T01:00:07;1.10;92.70
420;DHT22;42600;54.408;13.016;2023-02-15T01:02:33;1.10;92.70
420;DHT22;42600;54.408;13.016;2023-02-15T01:05:00;1.10;92.70
420;DHT22;42600;54.408;13.016;2023-02-15T01:07:26;1.10;92.70
420;DHT22;42600;54.408;13.016;2023-02-15T01:09:53;1.10;92.70
420;DHT22;42600;54.408;13.016;2023-02-15T01:12:19;1.10;92.70
420;DHT22;42600;54.408;13.016;2023-02-15T01:14:46;1.00;92.70
420;DHT22;42600;54.408;13.016;2023-02-15T01:17:14;1.00;92.70
420;DHT22;42600;54.408;13.016;2023-02-15T01:19:40;1.00;92.70
420;DHT22;42600;54.408;13.016;2023-02-15T01:22:07;1.00;92.70
420;DHT22;42600;54.408;13.016;2023-02-15T01:24:34;1.00;92.70
420;DHT22;42600;54.408;13.016;2023-02-15T01:27:00;1.00;92.70
420;DHT22;42600;54.408;13.016;2023-02-15T01:29:27;1.00;92.70
420;DHT22;42600;54.408;13.016;2023-02-15T01:31:53;1.00;92.70
420;DHT22;42600;54.408;13.016;2023-02-15T01:34:21;1.00;92.70
420;DHT22;42600;54.408;13.016;2023-02-15T01:36:48;1.00;92.70
420;DHT22;42600;54.408;13.016;2023-02-15T01:39:14;1.00;92.70
420;DHT22;42600;54.408;13.016;2023-02-15T01:41:41;1.00;92.70
420;DHT22;42600;54.408;13.016;2023-02-15T01:47:09;0.90;92.70
420;DHT22;42600;54.408;13.016;2023-02-15T01:49:38;0.90;92.70
420;DHT22;42600;54.408;13.016;2023-02-15T01:52:07;0.90;92.70
420;DHT22;42600;54.408;13.016;2023-02-15T01:54:36;0.90;92.70
420;DHT22;42600;54.408;13.016;2023-02-15T01:57:07;0.90;92.70
420;DHT22;42600;54.408;13.016;2023-02-15T01:59:36;0.90;92.70
420;DHT22;42600;54.408;13.016;2023-02-15T02:02:05;0.90;92.70
420;DHT22;42600;54.408;13.016;2023-02-15T02:04:39;0.80;92.70
420;DHT22;42600;54.408;13.016;2023-02-15T02:07:08;0.90;92.70
420;DHT22;42600;54.408;13.016;2023-02-15T02:09:36;0.90;92.70
420;DHT22;42600;54.408;13.016;2023-02-15T02:12:03;0.90;92.70
420;DHT22;42600;54.408;13.016;2023-02-15T02:14:30;0.80;92.70
420;DHT22;42600;54.408;13.016;2023-02-15T02:17:02;0.80;92.70
420;DHT22;42600;54.408;13.016;2023-02-15T02:19:53;0.80;92.70
420;DHT22;42600;54.408;13.016;2023-02-15T02:22:37;0.80;92.70
420;DHT22;42600;54.408;13.016;2023-02-15T02:25:34;0.80;92.70
420;DHT22;42600;54.408;13.016;2023-02-15T02:28:20;0.80;92.70
420;DHT22;42600;54.408;13.016;2023-02-15T02:31:00;0.80;92.70
420;DHT22;42600;54.408;13.016;2023-02-15T02:33:42;0.80;92.70
420;DHT22;42600;54.408;13.016;2023-02-15T02:36:17;0.80;92.70
420;DHT22;42600;54.408;13.016;2023-02-15T02:38:55;0.80;92.70
420;DHT22;42600;54.408;13.016;2023-02-15T02:41:31;0.80;92.70
420;DHT22;42600;54.408;13.016;2023-02-15T02:44:04;0.80;92.70
420;DHT22;42600;54.408;13.016;2023-02-15T02:46:38;0.80;92.70
420;DHT22;42600;54.408;13.016;2023-02-15T02:49:08;0.80;92.70
420;DHT22;42600;54.408;13.016;2023-02-15T02:51:35;0.80;92.70
420;DHT22;42600;54.408;13.016;2023-02-15T02:54:05;0.80;92.70
420;DHT22;42600;54.408;13.016;2023-02-15T02:56:37;0.80;92.70
420;DHT22;42600;54.408;13.016;2023-02-15T02:59:07;0.80;92.70
420;DHT22;42600;54.408;13.016;2023-02-15T03:01:39;0.80;92.70
420;DHT22;42600;54.408;13.016;2023-02-15T03:04:10;0.80;92.70
420;DHT22;42600;54.408;13.016;2023-02-15T03:06:41;0.80;92.70
420;DHT22;42600;54.408;13.016;2023-02-15T03:09:12;0.80;92.70
420;DHT22;42600;54.408;13.016;2023-02-15T03:11:47;0.80;92.70
420;DHT22;42600;54.408;13.016;2023-02-15T03:14:16;0.80;92.70
420;DHT22;42600;54.408;13.016;2023-02-15T03:16:47;0.70;92.70
420;DHT22;42600;54.408;13.016;2023-02-15T03:19:17;0.70;92.70
420;DHT22;42600;54.408;13.016;2023-02-15T03:21:47;0.70;92.70
420;DHT22;42600;54.408;13.016;2023-02-15T03:24:17;0.70;92.70
420;DHT22;42600;54.408;13.016;2023-02-15T03:26:47;0.60;92.70
420;DHT22;42600;54.408;13.016;2023-02-15T03:29:17;0.70;92.70
420;DHT22;42600;54.408;13.016;2023-02-15T03:31:50;0.70;92.70
420;DHT22;42600;54.408;13.016;2023-02-15T03:34:20;0.70;92.70
420;DHT22;42600;54.408;13.016;2023-02-15T03:36:51;0.60;92.70
420;DHT22;42600;54.408;13.016;2023-02-15T03:39:22;0.60;92.70
420;DHT22;42600;54.408;13.016;2023-02-15T03:41:57;0.60;92.70
420;DHT22;42600;54.408;13.016;2023-02-15T03:44:28;0.60;92.70
420;DHT22;42600;54.408;13.016;2023-02-15T03:47:00;0.50;92.70
420;DHT22;42600;54.408;13.016;2023-02-15T03:49:36;0.50;92.70
420;DHT22;42600;54.408;13.016;2023-02-15T03:52:05;0.40;92.70
420;DHT22;42600;54.408;13.016;2023-02-15T03:54:34;0.50;92.70
420;DHT22;42600;54.408;13.016;2023-02-15T03:57:15;0.40;92.70
420;DHT22;42600;54.408;13.016;2023-02-15T04:00:01;0.40;92.70
420;DHT22;42600;54.408;13.016;2023-02-15T04:03:00;0.40;92.70
420;DHT22;42600;54.408;13.016;2023-02-15T04:05:32;0.40;92.70
420;DHT22;42600;54.408;13.016;2023-02-15T04:07:58;0.30;92.70
420;DHT22;42600;54.408;13.016;2023-02-15T04:10:28;0.30;92.70
420;DHT22;42600;54.408;13.016;2023-02-15T04:13:12;0.30;92.70
420;DHT22;42600;54.408;13.016;2023-02-15T04:15:39;0.30;92.70
420;DHT22;42600;54.408;13.016;2023-02-15T04:18:23;0.30;92.70
420;DHT22;42600;54.408;13.016;2023-02-15T04:21:09;0.30;92.70
420;DHT22;42600;54.408;13.016;2023-02-15T04:23:53;0.30;92.70
420;DHT22;42600;54.408;13.016;2023-02-15T04:26:37;0.30;92.70
420;DHT22;42600;54.408;13.016;2023-02-15T04:29:04;0.30;92.70
420;DHT22;42600;54.408;13.016;2023-02-15T04:31:30;0.30;92.70
420;DHT22;42600;54.408;13.016;2023-02-15T04:33:57;0.20;92.70
420;DHT22;42600;54.408;13.016;2023-02-15T04:36:25;0.20;92.70
420;DHT22;42600;54.408;13.016;2023-02-15T04:38:52;0.20;92.70
420;DHT22;42600;54.408;13.016;2023-02-15T04:41:18;0.20;92.70
420;DHT22;42600;54.408;13.016;2023-02-15T04:43:45;0.20;92.70
420;DHT22;42600;54.408;13.016;2023-02-15T04:46:11;0.20;92.70
420;DHT22;42600;54.408;13.016;2023-02-15T04:48:38;0.10;92.70
420;DHT22;42600;54.408;13.016;2023-02-15T04:51:05;0.10;92.70
420;DHT22;42600;54.408;13.016;2023-02-15T04:53:34;0.10;92.70
420;DHT22;42600;54.408;13.016;2023-02-15T04:56:01;0.10;92.70
420;DHT22;42600;54.408;13.016;2023-02-15T04:58:27;0.10;92.70
420;DHT22;42600;54.408;13.016;2023-02-15T05:00:55;0.10;92.70
420;DHT22;42600;54.408;13.016;2023-02-15T05:03:21;0.10;92.70
420;DHT22;42600;54.408;13.016;2023-02-15T05:05:48;0.10;92.70
420;DHT22;42600;54.408;13.016;2023-02-15T05:08:15;0.20;92.70
420;DHT22;42600;54.408;13.016;2023-02-15T05:10:43;0.10;92.70
420;DHT22;42600;54.408;13.016;2023-02-15T05:13:09;0.10;92.70
420;DHT22;42600;54.408;13.016;2023-02-15T05:15:36;0.20;92.70
420;DHT22;42600;54.408;13.016;2023-02-15T05:18:02;0.10;92.70
420;DHT22;42600;54.408;13.016;2023-02-15T05:20:31;0.10;92.70
420;DHT22;42600;54.408;13.016;2023-02-15T05:22:57;0.10;92.70
420;DHT22;42600;54.408;13.016;2023-02-15T05:25:24;0.10;92.70
420;DHT22;42600;54.408;13.016;2023-02-15T05:28:10;0.10;92.70
420;DHT22;42600;54.408;13.016;2023-02-15T05:30:46;0.10;92.70
420;DHT22;42600;54.408;13.016;2023-02-15T05:33:13;0.10;92.70
420;DHT22;42600;54.408;13.016;2023-02-15T05:35:39;0.10;92.70
420;DHT22;42600;54.408;13.016;2023-02-15T05:38:06;0.10;92.70
420;DHT22;42600;54.408;13.016;2023-02-15T05:40:33;0.10;92.70
420;DHT22;42600;54.408;13.016;2023-02-15T05:42:59;0.10;92.70
420;DHT22;42600;54.408;13.016;2023-02-15T05:45:27;0.10;92.70
420;DHT22;42600;54.408;13.016;2023-02-15T05:47:54;0.10;92.70
420;DHT22;42600;54.408;13.016;2023-02-15T05:50:20;0.10;92.70
420;DHT22;42600;54.408;13.016;2023-02-15T05:52:47;0.10;92.70
420;DHT22;42600;54.408;13.016;2023-02-15T05:55:14;0.10;92.70
420;DHT22;42600;54.408;13.016;2023-02-15T05:57:40;0.10;92.70
420;DHT22;42600;54.408;13.016;2023-02-15T06:00:08;0.10;92.70
420;DHT22;42600;54.408;13.016;2023-02-15T06:02:37;0.00;92.70
420;DHT22;42600;54.408;13.016;2023-02-15T06:05:04;0.00;92.70
420;DHT22;42600;54.408;13.016;2023-02-15T06:07:31;0.00;92.70
420;DHT22;42600;54.408;13.016;2023-02-15T06:09:58;0.00;92.70
420;DHT22;42600;54.408;13.016;2023-02-15T06:12:24;0.00;92.70
420;DHT22;42600;54.408;13.016;2023-02-15T06:14:51;-0.10;92.70
420;DHT22;42600;54.408;13.016;2023-02-15T06:17:17;-0.10;92.70
420;DHT22;42600;54.408;13.016;2023-02-15T06:19:45;0.00;92.70
420;DHT22;42600;54.408;13.016;2023-02-15T06:22:12;-0.10;92.70
420;DHT22;42600;54.408;13.016;2023-02-15T06:24:39;-0.10;92.70
420;DHT22;42600;54.408;13.016;2023-02-15T06:27:08;-0.10;92.70
420;DHT22;42600;54.408;13.016;2023-02-15T06:29:34;-0.10;92.70
420;DHT22;42600;54.408;13.016;2023-02-15T06:32:01;-0.10;92.70
420;DHT22;42600;54.408;13.016;2023-02-15T06:34:27;-0.10;92.70
420;DHT22;42600;54.408;13.016;2023-02-15T06:36:55;-0.10;92.70
420;DHT22;42600;54.408;13.016;2023-02-15T06:39:22;-0.10;92.70
420;DHT22;42600;54.408;13.016;2023-02-15T06:41:48;-0.10;92.70
420;DHT22;42600;54.408;13.016;2023-02-15T06:44:15;-0.10;92.70
420;DHT22;42600;54.408;13.016;2023-02-15T06:46:42;-0.10;92.70
420;DHT22;42600;54.408;13.016;2023-02-15T06:49:08;-0.10;92.70
420;DHT22;42600;54.408;13.016;2023-02-15T06:51:35;0.00;92.70
420;DHT22;42600;54.408;13.016;2023-02-15T06:54:03;0.00;92.70
420;DHT22;42600;54.408;13.016;2023-02-15T06:56:29;0.00;92.70
420;DHT22;42600;54.408;13.016;2023-02-15T06:58:56;0.00;92.70
420;DHT22;42600;54.408;13.016;2023-02-15T07:01:22;0.00;92.70
420;DHT22;42600;54.408;13.016;2023-02-15T07:03:49;0.00;92.70
420;DHT22;42600;54.408;13.016;2023-02-15T07:06:16;0.00;92.70
420;DHT22;42600;54.408;13.016;2023-02-15T07:08:42;0.00;92.70
420;DHT22;42600;54.408;13.016;2023-02-15T07:11:10;0.00;92.70
420;DHT22;42600;54.408;13.016;2023-02-15T07:13:54;0.10;92.70
420;DHT22;42600;54.408;13.016;2023-02-15T07:16:21;0.10;92.70
420;DHT22;42600;54.408;13.016;2023-02-15T07:18:47;0.10;92.70
420;DHT22;42600;54.408;13.016;2023-02-15T07:21:14;0.10;92.70
420;DHT22;42600;54.408;13.016;2023-02-15T07:23:40;0.20;92.70
420;DHT22;42600;54.408;13.016;2023-02-15T07:26:07;0.20;92.70
420;DHT22;42600;54.408;13.016;2023-02-15T07:28:36;0.20;92.70
420;DHT22;42600;54.408;13.016;2023-02-15T07:31:03;0.20;92.70
420;DHT22;42600;54.408;13.016;2023-02-15T07:33:30;0.30;92.70
420;DHT22;42600;54.408;13.016;2023-02-15T07:35:58;0.30;92.70
420;DHT22;42600;54.408;13.016;2023-02-15T07:38:26;0.40;92.70
420;DHT22;42600;54.408;13.016;2023-02-15T07:40:57;0.50;92.70
420;DHT22;42600;54.408;13.016;2023-02-15T07:43:24;0.60;92.70
420;DHT22;42600;54.408;13.016;2023-02-15T07:45:52;0.60;92.70
420;DHT22;42600;54.408;13.016;2023-02-15T07:48:19;0.70;92.70
420;DHT22;42600;54.408;13.016;2023-02-15T07:50:45;0.70;92.70
420;DHT22;42600;54.408;13.016;2023-02-15T07:53:12;0.80;92.70
420;DHT22;42600;54.408;13.016;2023-02-15T07:55:38;0.80;92.70
420;DHT22;42600;54.408;13.016;2023-02-15T07:58:05;0.90;92.70
420;DHT22;42600;54.408;13.016;2023-02-15T08:00:31;1.00;92.70
420;DHT22;42600;54.408;13.016;2023-02-15T08:03:21;1.00;92.70
420;DHT22;42600;54.408;13.016;2023-02-15T08:05:48;1.10;92.70
420;DHT22;42600;54.408;13.016;2023-02-15T08:08:15;1.20;92.70
420;DHT22;42600;54.408;13.016;2023-02-15T08:10:58;1.30;92.70
420;DHT22;42600;54.408;13.016;2023-02-15T08:13:43;1.40;92.70
420;DHT22;42600;54.408;13.016;2023-02-15T08:16:19;1.50;92.70
420;DHT22;42600;54.408;13.016;2023-02-15T08:18:47;1.60;92.70
420;DHT22;42600;54.408;13.016;2023-02-15T08:21:14;1.70;92.70
420;DHT22;42600;54.408;13.016;2023-02-15T08:23:41;1.70;92.70
420;DHT22;42600;54.408;13.016;2023-02-15T08:26:07;1.80;92.70
420;DHT22;42600;54.408;13.016;2023-02-15T08:28:34;1.90;92.70
420;DHT22;42600;54.408;13.016;2023-02-15T08:31:04;1.90;92.70
420;DHT22;42600;54.408;13.016;2023-02-15T08:33:31;1.80;92.70
420;DHT22;42600;54.408;13.016;2023-02-15T08:36:03;1.80;92.70
420;DHT22;42600;54.408;13.016;2023-02-15T08:38:30;1.80;92.70
420;DHT22;42600;54.408;13.016;2023-02-15T08:40:57;1.60;92.70
420;DHT22;42600;54.408;13.016;2023-02-15T08:43:23;1.50;92.70
420;DHT22;42600;54.408;13.016;2023-02-15T08:45:50;1.40;92.70
420;DHT22;42600;54.408;13.016;2023-02-15T08:48:17;1.40;92.70
420;DHT22;42600;54.408;13.016;2023-02-15T08:50:43;1.50;92.70
420;DHT22;42600;54.408;13.016;2023-02-15T08:53:11;1.40;92.70
420;DHT22;42600;54.408;13.016;2023-02-15T08:55:38;1.40;92.70
420;DHT22;42600;54.408;13.016;2023-02-15T08:58:05;1.40;92.70
420;DHT22;42600;54.408;13.016;2023-02-15T09:00:31;1.40;92.70
420;DHT22;42600;54.408;13.016;2023-02-15T09:02:58;1.40;92.70
420;DHT22;42600;54.408;13.016;2023-02-15T09:05:25;1.50;92.70
420;DHT22;42600;54.408;13.016;2023-02-15T09:07:51;1.60;92.70
420;DHT22;42600;54.408;13.016;2023-02-15T09:10:19;1.50;92.70
420;DHT22;42600;54.408;13.016;2023-02-15T09:12:46;1.40;92.70
420;DHT22;42600;54.408;13.016;2023-02-15T09:15:15;1.40;92.70
420;DHT22;42600;54.408;13.016;2023-02-15T09:17:42;1.50;92.70
420;DHT22;42600;54.408;13.016;2023-02-15T09:20:09;1.60;92.70
420;DHT22;42600;54.408;13.016;2023-02-15T09:22:35;1.50;92.70
420;DHT22;42600;54.408;13.016;2023-02-15T09:25:02;1.60;92.70
420;DHT22;42600;54.408;13.016;2023-02-15T09:27:30;1.80;92.70
420;DHT22;42600;54.408;13.016;2023-02-15T09:29:57;1.90;92.70
420;DHT22;42600;54.408;13.016;2023-02-15T09:32:24;1.80;92.70
420;DHT22;42600;54.408;13.016;2023-02-15T09:34:51;1.80;92.70
420;DHT22;42600;54.408;13.016;2023-02-15T09:37:17;1.90;92.70
420;DHT22;42600;54.408;13.016;2023-02-15T09:39:45;2.00;92.70
420;DHT22;42600;54.408;13.016;2023-02-15T09:42:34;2.00;92.70
420;DHT22;42600;54.408;13.016;2023-02-15T09:45:15;2.00;92.70
420;DHT22;42600;54.408;13.016;2023-02-15T09:48:03;2.10;92.70
420;DHT22;42600;54.408;13.016;2023-02-15T09:50:42;2.10;92.70
420;DHT22;42600;54.408;13.016;2023-02-15T09:53:29;2.00;92.70
420;DHT22;42600;54.408;13.016;2023-02-15T09:56:05;2.00;92.70
420;DHT22;42600;54.408;13.016;2023-02-15T09:58:41;2.00;92.70
420;DHT22;42600;54.408;13.016;2023-02-15T10:01:17;2.00;92.70
420;DHT22;42600;54.408;13.016;2023-02-15T10:03:59;2.00;92.70
420;DHT22;42600;54.408;13.016;2023-02-15T10:06:36;2.00;92.70
420;DHT22;42600;54.408;13.016;2023-02-15T10:09:24;2.00;92.70
420;DHT22;42600;54.408;13.016;2023-02-15T10:12:07;2.20;92.70
420;DHT22;42600;54.408;13.016;2023-02-15T10:14:51;2.20;92.70
420;DHT22;42600;54.408;13.016;2023-02-15T10:17:37;2.10;92.70
420;DHT22;42600;54.408;13.016;2023-02-15T10:20:15;2.20;92.70
420;DHT22;42600;54.408;13.016;2023-02-15T10:22:58;2.20;92.70
420;DHT22;42600;54.408;13.016;2023-02-15T10:25:32;2.20;92.70
420;DHT22;42600;54.408;13.016;2023-02-15T10:28:04;2.20;92.70
420;DHT22;42600;54.408;13.016;2023-02-15T10:30:42;2.20;92.70
420;DHT22;42600;54.408;13.016;2023-02-15T10:33:17;2.30;92.70
420;DHT22;42600;54.408;13.016;2023-02-15T10:35:53;2.20;92.70
420;DHT22;42600;54.408;13.016;2023-02-15T10:38:27;2.20;92.70
420;DHT22;42600;54.408;13.016;2023-02-15T10:41:04;2.20;92.70
420;DHT22;42600;54.408;13.016;2023-02-15T10:43:45;2.40;92.70
420;DHT22;42600;54.408;13.016;2023-02-15T10:46:24;2.40;92.70
420;DHT22;42600;54.408;13.016;2023-02-15T10:49:20;2.50;92.70
420;DHT22;42600;54.408;13.016;2023-02-15T10:52:00;2.50;92.70
420;DHT22;42600;54.408;13.016;2023-02-15T10:54:36;2.60;92.70
420;DHT22;42600;54.408;13.016;2023-02-15T10:57:14;2.60;92.70
420;DHT22;42600;54.408;13.016;2023-02-15T11:00:05;2.60;92.70
420;DHT22;42600;54.408;13.016;2023-02-15T11:02:46;2.60;92.70
420;DHT22;42600;54.408;13.016;2023-02-15T11:05:31;2.60;92.70
420;DHT22;42600;54.408;13.016;2023-02-15T11:08:04;2.80;92.70
420;DHT22;42600;54.408;13.016;2023-02-15T11:10:35;2.80;92.70
420;DHT22;42600;54.408;13.016;2023-02-15T11:13:08;2.70;92.70
420;DHT22;42600;54.408;13.016;2023-02-15T11:15:38;2.60;92.70
420;DHT22;42600;54.408;13.016;2023-02-15T11:18:11;2.60;92.70
420;DHT22;42600;54.408;13.016;2023-02-15T11:20:43;2.70;92.70
420;DHT22;42600;54.408;13.016;2023-02-15T11:23:13;2.70;92.70
420;DHT22;42600;54.408;13.016;2023-02-15T11:25:43;2.70;92.70
420;DHT22;42600;54.408;13.016;2023-02-15T11:28:18;2.60;92.70
420;DHT22;42600;54.408;13.016;2023-02-15T11:30:49;2.50;92.70
420;DHT22;42600;54.408;13.016;2023-02-15T11:33:21;2.40;92.70
420;DHT22;42600;54.408;13.016;2023-02-15T11:35:52;2.50;92.70
420;DHT22;42600;54.408;13.016;2023-02-15T11:38:21;2.50;92.70
420;DHT22;42600;54.408;13.016;2023-02-15T11:40:51;2.50;92.70
420;DHT22;42600;54.408;13.016;2023-02-15T11:43:26;2.50;92.70
420;DHT22;42600;54.408;13.016;2023-02-15T11:45:54;2.40;92.70
420;DHT22;42600;54.408;13.016;2023-02-15T11:48:22;2.50;92.70
420;DHT22;42600;54.408;13.016;2023-02-15T11:50:49;2.50;92.70
420;DHT22;42600;54.408;13.016;2023-02-15T11:53:17;2.60;92.70
420;DHT22;42600;54.408;13.016;2023-02-15T11:55:48;2.70;92.70
420;DHT22;42600;54.408;13.016;2023-02-15T11:58:23;2.80;92.70
420;DHT22;42600;54.408;13.016;2023-02-15T12:00:57;3.00;92.70
420;DHT22;42600;54.408;13.016;2023-02-15T12:03:44;3.10;92.70
420;DHT22;42600;54.408;13.016;2023-02-15T12:06:16;2.90;92.70
420;DHT22;42600;54.408;13.016;2023-02-15T12:08:51;2.90;92.70
420;DHT22;42600;54.408;13.016;2023-02-15T12:11:22;2.80;92.70
420;DHT22;42600;54.408;13.016;2023-02-15T12:13:56;2.70;92.70
420;DHT22;42600;54.408;13.016;2023-02-15T12:16:24;2.70;92.70
420;DHT22;42600;54.408;13.016;2023-02-15T12:18:55;2.80;92.70
420;DHT22;42600;54.408;13.016;2023-02-15T12:21:29;2.80;92.70
420;DHT22;42600;54.408;13.016;2023-02-15T12:24:00;2.80;92.70
420;DHT22;42600;54.408;13.016;2023-02-15T12:26:29;2.80;92.70
420;DHT22;42600;54.408;13.016;2023-02-15T12:28:58;2.80;92.70
420;DHT22;42600;54.408;13.016;2023-02-15T12:31:30;2.90;92.70
420;DHT22;42600;54.408;13.016;2023-02-15T12:34:00;2.80;92.70
420;DHT22;42600;54.408;13.016;2023-02-15T12:36:30;2.80;92.70
420;DHT22;42600;54.408;13.016;2023-02-15T12:39:15;2.80;92.70
420;DHT22;42600;54.408;13.016;2023-02-15T12:41:49;2.80;92.70
420;DHT22;42600;54.408;13.016;2023-02-15T12:44:25;3.00;92.70
420;DHT22;42600;54.408;13.016;2023-02-15T12:46:59;2.90;92.70
420;DHT22;42600;54.408;13.016;2023-02-15T12:49:28;3.00;92.70
420;DHT22;42600;54.408;13.016;2023-02-15T12:51:56;3.00;92.70
420;DHT22;42600;54.408;13.016;2023-02-15T12:54:38;3.10;92.70
420;DHT22;42600;54.408;13.016;2023-02-15T12:57:21;3.10;92.70
420;DHT22;42600;54.408;13.016;2023-02-15T12:59:50;3.20;92.70
420;DHT22;42600;54.408;13.016;2023-02-15T13:02:22;3.30;92.70
420;DHT22;42600;54.408;13.016;2023-02-15T13:04:51;3.30;92.70
420;DHT22;42600;54.408;13.016;2023-02-15T13:07:18;3.40;92.70
420;DHT22;42600;54.408;13.016;2023-02-15T13:09:46;3.50;92.70
420;DHT22;42600;54.408;13.016;2023-02-15T13:12:18;3.60;92.70
420;DHT22;42600;54.408;13.016;2023-02-15T13:14:48;3.70;92.70
420;DHT22;42600;54.408;13.016;2023-02-15T13:17:18;3.90;92.70
420;DHT22;42600;54.408;13.016;2023-02-15T13:19:48;3.80;92.70
420;DHT22;42600;54.408;13.016;2023-02-15T13:22:21;3.90;92.70
420;DHT22;42600;54.408;13.016;2023-02-15T13:24:51;4.00;92.70
420;DHT22;42600;54.408;13.016;2023-02-15T13:27:21;4.20;92.70
420;DHT22;42600;54.408;13.016;2023-02-15T13:29:50;4.20;92.70
420;DHT22;42600;54.408;13.016;2023-02-15T13:32:26;4.10;92.70
420;DHT22;42600;54.408;13.016;2023-02-15T13:34:57;4.20;92.70
420;DHT22;42600;54.408;13.016;2023-02-15T13:37:44;4.20;92.70
420;DHT22;42600;54.408;13.016;2023-02-15T13:40:14;4.30;92.70
420;DHT22;42600;54.408;13.016;2023-02-15T13:42:45;4.40;92.70
420;DHT22;42600;54.408;13.016;2023-02-15T13:45:27;4.40;92.70
420;DHT22;42600;54.408;13.016;2023-02-15T13:48:00;4.40;92.70
420;DHT22;42600;54.408;13.016;2023-02-15T13:50:43;4.40;92.70
420;DHT22;42600;54.408;13.016;2023-02-15T13:53:36;4.40;92.70
420;DHT22;42600;54.408;13.016;2023-02-15T13:56:13;4.50;92.70
420;DHT22;42600;54.408;13.016;2023-02-15T13:59:12;4.40;92.70
420;DHT22;42600;54.408;13.016;2023-02-15T14:01:46;4.20;92.70
420;DHT22;42600;54.408;13.016;2023-02-15T14:04:39;4.20;92.70
420;DHT22;42600;54.408;13.016;2023-02-15T14:07:36;4.40;92.70
420;DHT22;42600;54.408;13.016;2023-02-15T14:10:23;4.00;92.70
420;DHT22;42600;54.408;13.016;2023-02-15T14:13:05;4.00;92.70
420;DHT22;42600;54.408;13.016;2023-02-15T14:15:42;3.90;92.70
420;DHT22;42600;54.408;13.016;2023-02-15T14:18:19;4.00;92.70
420;DHT22;42600;54.408;13.016;2023-02-15T14:20:58;3.90;92.70
420;DHT22;42600;54.408;13.016;2023-02-15T14:23:38;3.70;92.70
420;DHT22;42600;54.408;13.016;2023-02-15T14:26:11;3.80;92.70
420;DHT22;42600;54.408;13.016;2023-02-15T14:28:44;3.70;92.70
420;DHT22;42600;54.408;13.016;2023-02-15T14:31:15;3.80;92.70
420;DHT22;42600;54.408;13.016;2023-02-15T14:33:49;3.80;92.70
420;DHT22;42600;54.408;13.016;2023-02-15T14:36:19;4.00;92.70
420;DHT22;42600;54.408;13.016;2023-02-15T14:38:54;4.00;92.70
420;DHT22;42600;54.408;13.016;2023-02-15T14:41:29;3.90;92.70
420;DHT22;42600;54.408;13.016;2023-02-15T14:44:01;4.00;92.70
420;DHT22;42600;54.408;13.016;2023-02-15T14:46:37;4.00;92.70
420;DHT22;42600;54.408;13.016;2023-02-15T14:49:10;4.20;92.70
420;DHT22;42600;54.408;13.016;2023-02-15T14:51:57;4.30;92.70
420;DHT22;42600;54.408;13.016;2023-02-15T14:54:53;4.30;92.70
420;DHT22;42600;54.408;13.016;2023-02-15T14:57:24;4.30;92.70
420;DHT22;42600;54.408;13.016;2023-02-15T14:59:54;4.40;92.70
420;DHT22;42600;54.408;13.016;2023-02-15T15:02:25;4.40;92.70
420;DHT22;42600;54.408;13.016;2023-02-15T15:05:02;4.30;92.70
420;DHT22;42600;54.408;13.016;2023-02-15T15:07:40;4.30;92.70
420;DHT22;42600;54.408;13.016;2023-02-15T15:10:35;4.20;92.70
420;DHT22;42600;54.408;13.016;2023-02-15T15:16:29;4.40;92.70
420;DHT22;42600;54.408;13.016;2023-02-15T15:18:56;4.30;92.70
420;DHT22;42600;54.408;13.016;2023-02-15T15:21:51;4.20;92.70
420;DHT22;42600;54.408;13.016;2023-02-15T15:24:46;4.30;92.70
420;DHT22;42600;54.408;13.016;2023-02-15T15:27:38;4.30;92.70
420;DHT22;42600;54.408;13.016;2023-02-15T15:33:59;4.40;92.70
420;DHT22;42600;54.408;13.016;2023-02-15T15:42:55;4.30;92.70
420;DHT22;42600;54.408;13.016;2023-02-15T15:45:37;4.40;92.70
420;DHT22;42600;54.408;13.016;2023-02-15T15:48:28;4.30;92.70
420;DHT22;42600;54.408;13.016;2023-02-15T15:50:59;4.20;92.70
420;DHT22;42600;54.408;13.016;2023-02-15T15:53:28;4.20;92.70
420;DHT22;42600;54.408;13.016;2023-02-15T15:55:59;4.30;92.70
420;DHT22;42600;54.408;13.016;2023-02-15T15:58:26;4.40;92.70
420;DHT22;42600;54.408;13.016;2023-02-15T16:00:59;4.30;92.70
420;DHT22;42600;54.408;13.016;2023-02-15T16:03:29;4.30;92.70
420;DHT22;42600;54.408;13.016;2023-02-15T16:05:56;4.20;92.70
420;DHT22;42600;54.408;13.016;2023-02-15T16:08:29;4.20;92.70
420;DHT22;42600;54.408;13.016;2023-02-15T16:10:56;4.20;92.70
420;DHT22;42600;54.408;13.016;2023-02-15T16:13:24;4.10;92.70
420;DHT22;42600;54.408;13.016;2023-02-15T16:15:53;4.00;92.70
420;DHT22;42600;54.408;13.016;2023-02-15T16:18:22;4.00;92.70
420;DHT22;42600;54.408;13.016;2023-02-15T16:20:51;4.10;92.70
420;DHT22;42600;54.408;13.016;2023-02-15T16:23:44;4.10;92.70
420;DHT22;42600;54.408;13.016;2023-02-15T16:26:20;4.10;92.70
420;DHT22;42600;54.408;13.016;2023-02-15T16:28:48;4.10;92.70
420;DHT22;42600;54.408;13.016;2023-02-15T16:31:16;4.10;92.70
420;DHT22;42600;54.408;13.016;2023-02-15T16:33:43;4.10;92.70
420;DHT22;42600;54.408;13.016;2023-02-15T16:36:12;4.10;92.70
420;DHT22;42600;54.408;13.016;2023-02-15T16:39:08;4.00;92.70
420;DHT22;42600;54.408;13.016;2023-02-15T16:41:36;4.00;92.70
420;DHT22;42600;54.408;13.016;2023-02-15T16:44:06;3.90;92.70
420;DHT22;42600;54.408;13.016;2023-02-15T16:46:37;4.00;92.70
420;DHT22;42600;54.408;13.016;2023-02-15T16:49:06;4.00;92.70